Three Bridges, Louisiana
Current Conditions -  °F | °C
As of 10:35 AM on Monday 26 Jan 2015 (Local Time) from KIER Reporting Station
Clear Clear  
Wind Chill: 53°   Ceiling: Unl
Heat Index: 53°   Visibility: 10mi
Dew Point: 37°   Wind: 8mph
Humidity: 54%   Direction: 330°NNW
Pressure: 30.22"   Gusts: NA
Location:  31.6668°N, 92.8023°W
Report Text: KIER 261635Z AUTO 33007KT 10SM CLR 11/03 A3022 RMK AO2 T01140025
Loading
Personal Weather Stations






























Interactive Weather Map New forecast layout! Learn more

10-Day Weather Forecast

Advertisements
Track Severe Weather on mobile